Time;durP1;ratioP1;P1;durP2;ratioP2;P2;SDS_P1;SDS_P2;PMS_P1;PMS_P2;Temp;Humidity;BMP_temperature;BMP_pressure;BME280_temperature;BME280_humidity;BME280_pressure;Samples;Min_cycle;Max_cycle;Signal;HPM_P1;HPM_P2
2022/03/17 00:01:33;;;;;;;7.20;3.80;;;;;;;-5.61;65.65;100630.16;104776;1271;62060;-30
2022/03/17 00:04:03;;;;;;;10.00;4.70;;;;;;;-5.66;65.62;100627.73;104679;1275;76606;-29
2022/03/17 00:06:32;;;;;;;10.70;5.60;;;;;;;-5.70;65.80;100630.40;104721;1271;75817;-29
2022/03/17 00:09:03;;;;;;;13.80;6.10;;;;;;;-5.72;65.87;100632.91;104859;1271;73293;-29
2022/03/17 00:11:34;;;;;;;9.50;3.80;;;;;;;-5.76;66.96;100636.79;104735;1271;61111;-28
2022/03/17 00:14:03;;;;;;;12.20;5.50;;;;;;;-5.77;66.99;100637.60;104703;1273;62289;-29
2022/03/17 00:16:34;;;;;;;10.00;5.70;;;;;;;-5.83;66.69;100629.94;104801;1272;75676;-31
2022/03/17 00:19:07;;;;;;;6.70;2.90;;;;;;;-5.88;67.28;100634.29;104814;1271;76002;-28
2022/03/17 00:21:39;;;;;;;4.80;2.90;;;;;;;-5.22;68.07;100634.07;104750;1271;73342;-29
2022/03/17 00:24:08;;;;;;;5.90;3.10;;;;;;;-4.08;65.55;100634.63;104822;1271;61303;-31
2022/03/17 00:26:38;;;;;;;3.80;2.60;;;;;;;-3.65;63.93;100638.86;104954;1271;61152;-30
2022/03/17 00:29:07;;;;;;;5.30;2.40;;;;;;;-3.74;63.35;100640.70;104814;1272;75419;-29
2022/03/17 00:31:39;;;;;;;14.20;5.60;;;;;;;-4.00;63.61;100638.06;104831;1271;75896;-30
2022/03/17 00:34:08;;;;;;;33.30;12.40;;;;;;;-4.26;63.81;100633.38;104865;1272;72124;-29
2022/03/17 00:36:38;;;;;;;43.60;14.50;;;;;;;-4.52;64.15;100636.64;104787;1274;61126;-31
2022/03/17 00:39:10;;;;;;;39.20;11.20;;;;;;;-4.75;65.23;100638.85;104718;1273;61867;-31
2022/03/17 00:41:40;;;;;;;34.30;11.30;;;;;;;-4.94;65.82;100636.02;104674;1273;75539;-29
2022/03/17 00:44:14;;;;;;;30.90;9.40;;;;;;;-5.10;65.68;100637.23;104737;1271;75768;-29
2022/03/17 00:46:43;;;;;;;19.60;6.20;;;;;;;-5.25;65.74;100639.48;105080;1271;74480;-31
2022/03/17 00:49:13;;;;;;;12.40;4.10;;;;;;;-5.39;66.40;100637.16;104847;1271;61153;-30
2022/03/17 00:51:45;;;;;;;11.10;3.70;;;;;;;-5.49;66.36;100645.69;104902;1271;62646;-31
2022/03/17 00:54:14;;;;;;;8.40;2.80;;;;;;;-5.59;66.49;100646.27;104793;1271;75538;-28
2022/03/17 00:56:44;;;;;;;6.70;2.90;;;;;;;-5.71;66.70;100646.48;104814;1271;76065;-30
2022/03/17 00:59:14;;;;;;;8.60;3.20;;;;;;;-5.84;67.10;100646.84;104829;1271;73313;-29
2022/03/17 01:01:43;;;;;;;15.20;5.10;;;;;;;-5.94;67.90;100648.25;104755;1272;62070;-29
2022/03/17 01:04:13;;;;;;;17.00;6.40;;;;;;;-6.05;68.28;100645.27;104647;1271;61100;-29
2022/03/17 01:06:42;;;;;;;20.60;8.10;;;;;;;-6.15;69.27;100647.34;104873;1271;75966;-30
2022/03/17 01:09:13;;;;;;;22.70;10.10;;;;;;;-6.25;69.17;100644.52;104831;1271;75918;-30
2022/03/17 01:11:42;;;;;;;22.40;10.30;;;;;;;-6.35;70.47;100645.06;104732;1272;72798;-31
2022/03/17 01:14:15;;;;;;;19.70;8.80;;;;;;;-6.40;69.49;100644.14;104808;1271;61164;-31
2022/03/17 01:16:45;;;;;;;27.00;9.50;;;;;;;-6.50;70.05;100637.59;104826;1271;62030;-31
2022/03/17 01:19:16;;;;;;;20.10;6.90;;;;;;;-6.56;70.87;100639.02;104775;1271;74595;-29
2022/03/17 01:21:47;;;;;;;14.70;6.30;;;;;;;-6.03;70.47;100646.29;104783;1271;76181;-29
2022/03/17 01:24:18;;;;;;;32.70;11.40;;;;;;;-4.94;68.11;100650.91;104646;1271;74442;-31
2022/03/17 01:26:47;;;;;;;28.40;9.10;;;;;;;-4.51;66.01;100652.06;104770;1273;61168;-28
2022/03/17 01:29:17;;;;;;;27.80;9.90;;;;;;;-4.57;65.54;100646.94;104810;1271;62801;-30
2022/03/17 01:31:57;;;;;;;32.60;12.60;;;;;;;-4.76;66.01;100649.00;105062;1271;75566;-29
2022/03/17 01:34:26;;;;;;;32.30;11.50;;;;;;;-5.00;66.14;100652.39;105131;1271;76095;-29
2022/03/17 01:36:55;;;;;;;28.80;9.00;;;;;;;-5.25;66.62;100656.23;104996;1271;74392;-28
2022/03/17 01:39:26;;;;;;;26.30;7.80;;;;;;;-5.49;67.27;100657.86;104818;1271;62147;-30
2022/03/17 01:42:03;;;;;;;26.70;7.90;;;;;;;-5.72;67.53;100659.15;104830;1271;61994;-29
2022/03/17 01:44:32;;;;;;;16.10;6.30;;;;;;;-5.92;67.61;100655.89;104643;1272;75494;-30
2022/03/17 01:49:51;;;;;;;20.30;7.90;;;;;;;-6.25;69.72;100657.70;104811;1275;74429;-30
2022/03/17 01:52:21;;;;;;;17.90;6.60;;;;;;;-6.39;70.72;100654.13;104925;1271;61253;-28
2022/03/17 01:54:50;;;;;;;15.10;6.00;;;;;;;-6.51;69.99;100654.80;105137;1271;61220;-30
2022/03/17 01:57:20;;;;;;;22.30;7.20;;;;;;;-6.62;70.41;100654.14;105138;1271;75345;-28
2022/03/17 01:59:50;;;;;;;16.20;6.70;;;;;;;-6.75;71.39;100653.27;105126;1271;75873;-28
2022/03/17 02:02:20;;;;;;;16.80;7.50;;;;;;;-6.86;70.87;100657.85;104831;1274;73461;-28
2022/03/17 02:04:51;;;;;;;14.80;5.00;;;;;;;-6.95;71.88;100652.63;104783;1271;62169;-30
2022/03/17 02:07:21;;;;;;;8.30;3.60;;;;;;;-6.79;72.19;100656.77;104773;1272;61028;-30
2022/03/17 02:09:55;;;;;;;25.40;9.00;;;;;;;-5.78;71.43;100656.89;104784;1271;75244;-28
2022/03/17 02:15:28;;;;;;;27.80;10.40;;;;;;;-4.94;67.61;100663.79;104772;1272;73377;-28
2022/03/17 02:17:58;;;;;;;20.60;9.20;;;;;;;-5.21;67.98;100663.23;104779;1272;61218;-28
2022/03/17 02:20:29;;;;;;;24.20;9.40;;;;;;;-5.49;68.07;100670.23;104680;1271;61106;-29
2022/03/17 02:25:57;;;;;;;17.10;5.90;;;;;;;-6.06;69.03;100671.48;104715;1272;74972;-28
2022/03/17 02:28:27;;;;;;;15.10;5.80;;;;;;;-6.28;70.08;100671.53;104827;1271;74510;-28
2022/03/17 02:30:57;;;;;;;19.70;7.80;;;;;;;-6.47;71.12;100670.23;104758;1271;61039;-28
2022/03/17 02:33:42;;;;;;;18.00;6.50;;;;;;;-6.67;71.91;100673.50;104747;1271;61848;-28
2022/03/17 02:36:12;;;;;;;27.30;8.30;;;;;;;-6.83;71.99;100672.92;104779;1271;75668;-30
2022/03/17 02:38:43;;;;;;;27.50;6.60;;;;;;;-6.97;74.55;100672.36;104807;1271;75981;-28
2022/03/17 02:41:21;;;;;;;22.90;8.60;;;;;;;-7.07;73.47;100681.31;104631;1274;74783;-30
2022/03/17 02:43:52;;;;;;;14.80;5.40;;;;;;;-7.21;73.34;100681.08;104741;1271;62023;-31
2022/03/17 02:46:21;;;;;;;11.30;4.60;;;;;;;-6.85;73.49;100685.04;104607;1271;61160;-29
2022/03/17 02:48:54;;;;;;;34.90;10.60;;;;;;;-5.79;71.91;100690.37;104826;1271;76899;-29
2022/03/17 02:51:23;;;;;;;38.20;13.50;;;;;;;-5.28;70.12;100694.98;104713;1274;75326;-29
2022/03/17 02:53:53;;;;;;;38.10;11.60;;;;;;;-5.31;69.14;100694.45;104797;1271;74358;-29
2022/03/17 02:56:23;;;;;;;29.70;10.20;;;;;;;-5.55;69.22;100702.32;104656;1274;61234;-29
2022/03/17 02:58:52;;;;;;;27.50;8.70;;;;;;;-5.85;69.74;100703.67;104823;1271;62799;-29
2022/03/17 03:01:22;;;;;;;24.10;7.30;;;;;;;-6.14;71.36;100703.66;104689;1272;74520;-29
2022/03/17 03:03:52;;;;;;;17.40;6.20;;;;;;;-6.39;71.73;100707.38;104806;1271;76024;-29
2022/03/17 03:06:22;;;;;;;21.90;7.90;;;;;;;-6.62;72.31;100713.46;104806;1271;73856;-29
2022/03/17 03:08:52;;;;;;;28.70;8.80;;;;;;;-6.86;74.38;100714.92;104799;1271;61147;-28
2022/03/17 03:11:21;;;;;;;15.70;6.20;;;;;;;-7.05;74.85;100717.66;104851;1273;61864;-29
2022/03/17 03:13:53;;;;;;;16.10;5.70;;;;;;;-7.22;74.19;100720.73;104795;1271;75612;-28
2022/03/17 03:16:23;;;;;;;19.60;6.40;;;;;;;-7.41;74.73;100721.73;104613;1271;360830;-30
2022/03/17 03:18:53;;;;;;;9.00;4.10;;;;;;;-7.44;75.74;100725.54;104888;1273;74424;-29
2022/03/17 03:21:39;;;;;;;22.90;8.30;;;;;;;-6.56;74.71;100730.27;104732;1272;61142;-29
2022/03/17 03:24:09;;;;;;;35.50;11.70;;;;;;;-5.89;72.26;100735.25;104764;1271;61659;-30
2022/03/17 03:26:40;;;;;;;32.20;12.20;;;;;;;-5.82;71.29;100740.91;104901;1271;75708;-30
2022/03/17 03:29:32;;;;;;;50.40;20.80;;;;;;;-6.06;71.39;100738.09;104760;1271;76129;-28
2022/03/17 03:32:03;;;;;;;73.50;27.00;;;;;;;-6.43;73.13;100743.16;104685;1274;74520;-29
2022/03/17 03:34:33;;;;;;;25.30;9.10;;;;;;;-6.70;73.08;100741.55;104868;1271;61957;-29
2022/03/17 03:40:00;;;;;;;18.90;6.10;;;;;;;-7.25;73.87;100741.10;105125;1271;75676;-28
2022/03/17 03:42:30;;;;;;;32.70;10.40;;;;;;;-7.46;75.60;100741.70;104836;1270;76166;-28
2022/03/17 03:45:00;;;;;;;45.20;12.00;;;;;;;-7.63;78.19;100739.71;104899;1271;73329;-28
2022/03/17 03:47:29;;;;;;;25.10;9.30;;;;;;;-7.69;78.44;100742.59;104718;1274;63736;-29
2022/03/17 03:49:59;;;;;;;19.20;8.30;;;;;;;-7.09;77.41;100750.33;104781;1271;61108;-29
2022/03/17 03:52:29;;;;;;;21.40;8.70;;;;;;;-6.17;74.73;100755.19;104929;1271;75463;-29
2022/03/17 03:54:58;;;;;;;28.30;10.30;;;;;;;-5.94;72.49;100752.77;104995;1271;76550;-30
2022/03/17 03:57:27;;;;;;;28.70;10.40;;;;;;;-6.11;72.17;100756.97;104804;1271;74548;-29
2022/03/17 03:59:57;;;;;;;20.70;9.80;;;;;;;-6.39;73.09;100753.52;104992;1271;61278;-30
2022/03/17 04:02:30;;;;;;;24.80;9.20;;;;;;;-6.65;73.59;100763.25;104883;1271;61039;-29
2022/03/17 04:05:07;;;;;;;19.90;9.20;;;;;;;-6.88;74.24;100759.30;104838;1272;72654;-29
2022/03/17 04:07:37;;;;;;;21.50;7.00;;;;;;;-7.11;73.81;100762.80;104597;1276;75891;-29
2022/03/17 04:10:07;;;;;;;25.40;8.20;;;;;;;-7.35;73.77;100765.89;104744;1273;73441;-29
2022/03/17 04:12:37;;;;;;;41.10;13.30;;;;;;;-7.57;74.87;100765.11;104691;1274;62191;-29
2022/03/17 04:15:07;;;;;;;33.40;10.80;;;;;;;-7.79;76.31;100770.41;104889;1271;61800;-30
2022/03/17 04:17:45;;;;;;;20.80;7.90;;;;;;;-7.57;76.66;100773.55;104721;1271;75426;-29
2022/03/17 04:20:14;;;;;;;28.40;11.90;;;;;;;-6.60;75.38;100778.35;104833;1271;75932;-29
2022/03/17 04:22:44;;;;;;;45.60;15.40;;;;;;;-6.15;73.51;100784.98;104791;1271;74131;-29
2022/03/17 04:25:14;;;;;;;36.20;14.50;;;;;;;-6.22;72.97;100789.11;104869;1271;61218;-29
2022/03/17 04:27:43;;;;;;;27.60;13.90;;;;;;;-6.47;72.90;100784.83;104799;1271;62050;-29
2022/03/17 04:30:12;;;;;;;27.00;13.50;;;;;;;-6.76;73.11;100785.72;104811;1271;74329;-29
2022/03/17 04:32:44;;;;;;;23.70;12.10;;;;;;;-7.05;73.79;100786.70;104804;1271;75993;-29
2022/03/17 04:35:13;;;;;;;21.80;9.30;;;;;;;-7.27;75.42;100788.48;104648;1274;73376;-29
2022/03/17 04:37:43;;;;;;;18.50;8.20;;;;;;;-7.40;77.13;100793.45;104771;1271;61737;-29
2022/03/17 04:40:13;;;;;;;16.20;7.50;;;;;;;-7.49;77.52;100796.50;103299;1271;1003852;-29
2022/03/17 04:43:19;;;;;;;13.10;5.90;;;;;;;-7.50;77.81;100800.19;101897;1308;600711;-29
2022/03/17 04:45:49;;;;;;;13.80;5.60;;;;;;;-7.49;77.72;100800.87;104225;1284;61240;-29
2022/03/17 04:48:18;;;;;;;12.70;4.90;;;;;;;-7.40;77.69;100800.71;104519;1284;61036;-29
2022/03/17 04:50:48;;;;;;;10.70;4.30;;;;;;;-6.93;78.01;100805.64;104221;1284;73828;-29
2022/03/17 04:53:27;;;;;;;14.30;7.30;;;;;;;-5.64;77.01;100812.38;104462;1284;76079;-29
2022/03/17 04:56:01;;;;;;;26.90;14.70;;;;;;;-4.72;73.86;100816.66;104290;1281;274193;-30
2022/03/17 04:58:32;;;;;;;37.90;20.70;;;;;;;-4.56;70.62;100816.98;104472;1281;61413;-30
2022/03/17 05:01:02;;;;;;;34.20;17.20;;;;;;;-4.79;70.09;100823.52;104907;1274;61157;-29
2022/03/17 05:03:33;;;;;;;43.20;20.80;;;;;;;-4.95;70.29;100826.42;104813;1274;72958;-28
2022/03/17 05:06:03;;;;;;;36.00;16.30;;;;;;;-5.03;71.54;100829.89;104888;1273;74805;-28
2022/03/17 05:08:35;;;;;;;30.60;13.70;;;;;;;-5.12;72.34;100831.98;104886;1274;74364;-28
2022/03/17 05:11:09;;;;;;;33.30;14.20;;;;;;;-4.97;71.19;100838.77;104828;1274;62530;-28
2022/03/17 05:13:43;;;;;;;31.80;16.80;;;;;;;-4.77;70.33;100841.67;105050;1274;61338;-28
2022/03/17 05:16:13;;;;;;;34.50;16.60;;;;;;;-4.74;70.09;100843.25;104749;1275;74526;-28
2022/03/17 05:18:43;;;;;;;37.70;16.80;;;;;;;-4.56;69.22;100849.70;104897;1274;76064;-28
2022/03/17 05:21:15;;;;;;;37.10;17.00;;;;;;;-4.41;69.14;100850.68;105073;1274;74537;-28
2022/03/17 05:23:44;;;;;;;35.90;15.80;;;;;;;-4.28;68.67;100856.21;105073;1274;61153;-30
2022/03/17 05:26:14;;;;;;;46.60;20.40;;;;;;;-4.28;67.82;100858.93;104781;1274;61170;-28
2022/03/17 05:28:44;;;;;;;48.50;22.60;;;;;;;-4.38;68.08;100867.33;104617;1274;74776;-28
2022/03/17 05:31:14;;;;;;;39.80;18.40;;;;;;;-4.27;67.74;100872.69;104790;1274;76047;-28
2022/03/17 05:33:44;;;;;;;40.80;21.20;;;;;;;-4.07;67.85;100881.66;105136;1274;74292;-28
2022/03/17 05:36:13;;;;;;;43.40;19.60;;;;;;;-3.96;67.14;100880.23;104626;1275;61931;-28
2022/03/17 05:38:46;;;;;;;;;;;;;;;-3.86;66.97;100881.31;104656;1274;61154;-28
2022/03/17 05:41:16;;;;;;;41.50;19.80;;;;;;;-3.77;66.91;100885.63;104897;1274;74721;-28
2022/03/17 05:43:45;;;;;;;57.30;24.80;;;;;;;-3.84;67.14;100888.96;104964;1274;75110;-30
2022/03/17 05:46:20;;;;;;;50.90;23.90;;;;;;;-3.85;67.37;100890.66;104815;1274;72853;-30
2022/03/17 05:48:51;;;;;;;34.40;16.50;;;;;;;-3.74;66.85;100892.26;104710;1277;61134;-31
2022/03/17 05:51:20;;;;;;;44.40;20.70;;;;;;;-3.69;66.56;100896.70;104786;1274;61467;-28
2022/03/17 05:53:49;;;;;;;42.30;19.70;;;;;;;-3.64;66.58;100893.69;104914;1274;74737;-29
2022/03/17 05:56:19;;;;;;;49.30;22.60;;;;;;;-3.53;66.24;100898.16;105156;1274;75738;-29
2022/03/17 05:58:49;;;;;;;42.80;22.60;;;;;;;-3.44;66.09;100900.94;104844;1274;74145;-31
2022/03/17 06:01:19;;;;;;;38.50;16.80;;;;;;;-3.28;65.57;100896.27;104855;1274;61791;-30
2022/03/17 06:03:49;;;;;;;31.60;14.70;;;;;;;-3.16;64.61;100899.23;105068;1274;62030;-30
2022/03/17 06:06:18;;;;;;;29.70;14.60;;;;;;;-3.08;64.63;100902.14;104992;1274;73701;-30
2022/03/17 06:08:47;;;;;;;26.30;11.10;;;;;;;-3.03;65.08;100906.58;104746;1274;76425;-30
2022/03/17 06:11:18;;;;;;;18.70;10.20;;;;;;;-2.96;64.19;100906.11;104596;1274;74324;-28
2022/03/17 06:13:48;;;;;;;22.60;10.90;;;;;;;-2.89;64.48;100906.48;104593;1277;61322;-31
2022/03/17 06:16:17;;;;;;;11.60;5.70;;;;;;;-2.85;63.46;100905.30;104729;1277;61615;-30
2022/03/17 06:18:49;;;;;;;17.70;7.50;;;;;;;-2.81;63.13;100903.61;104688;1274;74099;-30
2022/03/17 06:21:19;;;;;;;12.70;7.00;;;;;;;-2.84;62.77;100904.95;104657;1274;75014;-29
2022/03/17 06:23:50;;;;;;;19.30;8.00;;;;;;;-2.83;62.41;100907.34;104609;1274;74214;-29
2022/03/17 06:26:19;;;;;;;13.70;6.30;;;;;;;-2.83;62.46;100908.36;104660;1274;61168;-30
2022/03/17 06:28:48;;;;;;;8.60;4.60;;;;;;;-2.77;63.11;100907.54;104783;1274;61010;-29
2022/03/17 06:31:18;;;;;;;12.50;7.60;;;;;;;-2.67;62.73;100909.60;104803;1274;74298;-29
2022/03/17 06:33:48;;;;;;;9.30;5.00;;;;;;;-2.57;63.03;100909.46;104635;1274;76229;-29
2022/03/17 06:36:17;;;;;;;11.00;6.40;;;;;;;-2.38;61.49;100914.09;104867;1274;74528;-29
2022/03/17 06:38:46;;;;;;;11.60;6.60;;;;;;;-2.24;60.91;100915.98;104814;1274;61273;-30
2022/03/17 06:41:16;;;;;;;18.40;8.50;;;;;;;-1.98;60.68;100915.67;105031;1272;61876;-29
2022/03/17 06:43:45;;;;;;;27.50;11.30;;;;;;;-1.77;58.94;100916.18;104795;1274;74512;-29
2022/03/17 06:46:14;;;;;;;23.50;9.70;;;;;;;-1.69;57.45;100919.23;105144;1274;73936;-29
2022/03/17 06:48:44;;;;;;;14.60;6.90;;;;;;;-1.37;58.64;100923.29;104738;1274;73494;-29
2022/03/17 06:51:14;;;;;;;12.00;6.40;;;;;;;-1.05;57.80;100922.34;105091;1274;61038;-29
2022/03/17 06:53:44;;;;;;;31.90;15.20;;;;;;;-0.84;55.16;100925.48;104748;1274;62007;-29
2022/03/17 06:56:14;;;;;;;18.20;9.40;;;;;;;-0.83;54.11;100928.05;105145;1274;74795;-29
2022/03/17 06:58:43;;;;;;;11.10;5.70;;;;;;;-0.64;54.62;100925.23;104773;1274;75850;-29
2022/03/17 07:01:13;;;;;;;11.30;6.40;;;;;;;-0.35;54.21;100925.41;104893;1274;74824;-29
2022/03/17 07:03:46;;;;;;;14.40;5.90;;;;;;;-0.21;52.89;100931.30;104840;1274;61889;-30
2022/03/17 07:06:16;;;;;;;15.70;7.30;;;;;;;-0.13;51.35;100931.25;104590;1275;62297;-29
2022/03/17 07:08:45;;;;;;;19.50;9.10;;;;;;;-0.53;50.86;100929.28;104838;1274;74812;-29
2022/03/17 07:11:15;;;;;;;14.30;7.30;;;;;;;-0.44;51.19;100934.86;104773;1274;74036;-29
2022/03/17 07:13:46;;;;;;;13.40;6.30;;;;;;;-0.46;50.75;100939.98;104837;1274;74404;-29
2022/03/17 07:16:18;;;;;;;8.20;4.10;;;;;;;-0.18;50.74;100940.50;104956;1274;61313;-30
2022/03/17 07:18:49;;;;;;;12.60;7.80;;;;;;;0.24;50.94;100941.20;104775;1274;62062;-29
2022/03/17 07:21:20;;;;;;;14.30;6.90;;;;;;;0.07;49.77;100941.00;105106;1274;73750;-29
2022/03/17 07:23:50;;;;;;;17.70;8.70;;;;;;;-0.47;50.15;100940.33;104767;1274;75774;-29
2022/03/17 07:26:19;;;;;;;9.10;4.70;;;;;;;-0.57;49.79;100938.50;104767;1274;74688;-29
2022/03/17 07:28:49;;;;;;;19.30;7.40;;;;;;;0.08;48.82;100939.63;105038;1274;61032;-29
2022/03/17 07:31:19;;;;;;;9.10;4.70;;;;;;;0.09;47.94;100939.79;105137;1274;61309;-29
2022/03/17 07:33:49;;;;;;;26.10;12.50;;;;;;;-0.08;48.12;100938.55;105115;1274;74692;-29
2022/03/17 07:36:19;;;;;;;8.30;4.50;;;;;;;0.15;47.63;100940.92;104603;1274;74960;-29
2022/03/17 07:38:53;;;;;;;7.90;3.50;;;;;;;0.43;46.80;100934.03;104721;1274;74427;-29
2022/03/17 07:41:22;;;;;;;5.00;2.30;;;;;;;0.26;47.77;100934.86;104755;1274;61302;-29
2022/03/17 07:43:52;;;;;;;4.50;2.00;;;;;;;0.83;46.19;100935.35;104746;1275;61124;-29
2022/03/17 07:46:41;;;;;;;29.30;13.60;;;;;;;1.28;46.11;100932.78;105113;1274;76680;-29
2022/03/17 07:49:10;;;;;;;13.40;5.20;;;;;;;0.96;45.38;100935.54;104688;1274;76039;-29
2022/03/17 07:51:42;;;;;;;7.40;3.30;;;;;;;0.62;45.32;100930.44;105012;1274;74317;-30
2022/03/17 07:54:12;;;;;;;16.90;6.40;;;;;;;0.72;46.32;100932.89;105081;1274;61280;-29
2022/03/17 07:56:41;;;;;;;28.70;13.90;;;;;;;0.96;44.97;100935.71;105098;1274;62094;-29
2022/03/17 07:59:11;;;;;;;6.50;3.30;;;;;;;0.60;45.99;100938.66;104747;1275;74585;-29
2022/03/17 08:01:40;;;;;;;21.40;8.50;;;;;;;0.70;46.03;100939.60;104914;1274;75257;-29
2022/03/17 08:04:10;;;;;;;6.10;2.90;;;;;;;0.88;45.84;100941.27;104892;1274;74703;-29
2022/03/17 08:06:39;;;;;;;9.00;4.40;;;;;;;0.96;43.94;100938.79;104677;1274;61351;-29
2022/03/17 08:09:21;;;;;;;11.30;5.70;;;;;;;1.39;44.65;100935.37;104655;1275;61147;-29
2022/03/17 08:11:52;;;;;;;20.30;8.30;;;;;;;0.81;44.28;100926.81;105133;1274;74788;-29
2022/03/17 08:14:21;;;;;;;9.60;5.10;;;;;;;0.56;44.63;100928.95;105106;1274;76155;-29
2022/03/17 08:16:50;;;;;;;19.80;6.00;;;;;;;0.50;44.94;100930.03;104775;1275;72073;-29
2022/03/17 08:19:20;;;;;;;20.70;9.10;;;;;;;0.50;44.60;100930.39;105082;1274;61136;-29
2022/03/17 08:21:50;;;;;;;17.00;8.40;;;;;;;-0.01;44.99;100928.94;104617;1274;61052;-29
2022/03/17 08:24:19;;;;;;;26.00;11.50;;;;;;;0.11;45.00;100928.68;104720;1275;74742;-29
2022/03/17 08:26:49;;;;;;;6.60;4.20;;;;;;;0.41;44.06;100930.12;105017;1274;76007;-29
2022/03/17 08:29:18;;;;;;;10.50;4.50;;;;;;;0.73;43.26;100931.17;104565;1274;74382;-29
2022/03/17 08:31:48;;;;;;;6.00;2.50;;;;;;;1.04;42.92;100931.35;104821;1274;61597;-29
2022/03/17 08:34:17;;;;;;;4.10;2.10;;;;;;;0.94;42.37;100936.24;104773;1274;62070;-29
2022/03/17 08:36:49;;;;;;;4.30;1.70;;;;;;;1.03;42.92;100932.90;104810;1274;74970;-29
2022/03/17 08:39:18;;;;;;;5.80;3.10;;;;;;;1.25;41.96;100933.16;104546;1274;76107;-29
2022/03/17 08:41:56;;;;;;;3.90;2.30;;;;;;;1.25;41.98;100933.67;104856;1274;73722;-29
2022/03/17 08:44:36;;;;;;;6.40;3.70;;;;;;;1.02;41.97;100937.52;104712;1277;61100;-29
2022/03/17 08:50:00;;;;;;;4.90;2.30;;;;;;;1.44;41.11;100938.21;104796;1274;73176;-29
2022/03/17 08:52:33;;;;;;;6.60;2.90;;;;;;;1.48;41.31;100934.73;104749;1274;74536;-29
2022/03/17 08:55:06;;;;;;;7.80;3.40;;;;;;;1.07;41.42;100936.27;104666;1274;72719;-29
2022/03/17 08:57:39;;;;;;;3.60;2.40;;;;;;;1.41;40.76;100934.82;104743;1275;61023;-28
2022/03/17 09:00:14;;;;;;;5.10;2.90;;;;;;;1.62;40.98;100936.43;104724;1274;61124;-28
2022/03/17 09:02:48;;;;;;;23.20;9.60;;;;;;;1.67;41.01;100939.44;105150;1272;74392;-29
2022/03/17 09:05:18;;;;;;;5.60;2.70;;;;;;;1.27;40.14;100938.25;105010;1271;74974;-30
2022/03/17 09:07:48;;;;;;;15.10;7.40;;;;;;;1.43;40.08;100937.70;104888;1271;74396;-29
2022/03/17 09:10:20;;;;;;;7.60;4.00;;;;;;;1.01;39.03;100937.88;105106;1271;61313;-29
2022/03/17 09:12:55;;;;;;;5.00;3.70;;;;;;;1.47;39.49;100938.52;105126;1271;62006;-30
2022/03/17 09:15:25;;;;;;;5.00;3.00;;;;;;;2.34;37.68;100937.70;105110;1271;73778;-29
2022/03/17 09:17:55;;;;;;;6.70;3.30;;;;;;;2.73;38.66;100940.27;105032;1271;74872;-29
2022/03/17 09:20:25;;;;;;;11.90;5.10;;;;;;;3.47;37.23;100944.31;104990;1272;74469;-29
2022/03/17 09:22:56;;;;;;;43.20;29.30;;;;;;;2.60;38.12;100941.17;105122;1272;61271;-29
2022/03/17 09:25:26;;;;;;;6.70;3.20;;;;;;;3.19;37.69;100941.63;104735;1272;61169;-30
2022/03/17 09:27:55;;;;;;;6.10;3.60;;;;;;;3.32;36.78;100939.14;105100;1271;74512;-29
2022/03/17 09:30:25;;;;;;;5.70;2.00;;;;;;;3.14;37.74;100940.86;105126;1274;74867;-29
2022/03/17 09:32:56;;;;;;;3.20;2.00;;;;;;;4.20;36.42;100939.70;105097;1271;74320;-29
2022/03/17 09:35:25;;;;;;;3.30;1.60;;;;;;;5.04;34.84;100935.46;105127;1271;60963;-29
2022/03/17 09:37:54;;;;;;;5.40;2.30;;;;;;;5.36;33.40;100936.08;105168;1271;62216;-29
2022/03/17 09:40:24;;;;;;;6.50;2.50;;;;;;;5.79;32.56;100938.93;105168;1271;75537;-28
2022/03/17 09:45:42;;;;;;;13.10;7.10;;;;;;;3.58;34.87;100939.31;105125;1270;72120;-29
2022/03/17 09:48:14;;;;;;;4.80;3.10;;;;;;;2.19;37.02;100938.47;104978;1270;61180;-28
2022/03/17 09:50:44;;;;;;;12.30;3.90;;;;;;;1.90;38.54;100933.09;105054;1271;62041;-29
2022/03/17 09:53:13;;;;;;;13.30;6.80;;;;;;;1.82;39.27;100936.14;104785;1271;74552;-29
2022/03/17 09:55:43;;;;;;;16.60;8.90;;;;;;;1.34;39.22;100935.08;105214;1270;74417;-30
2022/03/17 09:58:12;;;;;;;15.20;7.00;;;;;;;1.57;40.31;100937.53;105048;1271;72350;-30
2022/03/17 10:00:47;;;;;;;28.80;11.90;;;;;;;2.33;39.16;100937.23;105305;1270;60925;-30
2022/03/17 10:03:19;;;;;;;7.70;3.60;;;;;;;1.96;39.10;100933.14;105201;1271;61915;-30
2022/03/17 10:05:48;;;;;;;23.80;10.90;;;;;;;1.60;40.17;100940.05;105108;1272;74446;-30
2022/03/17 10:08:21;;;;;;;11.50;4.90;;;;;;;1.17;40.74;100931.02;105162;1271;76049;-30
2022/03/17 10:10:52;;;;;;;13.40;6.70;;;;;;;1.04;41.34;100937.00;105103;1271;74725;-29
2022/03/17 10:13:23;;;;;;;18.90;8.50;;;;;;;0.81;41.45;100941.52;105102;1271;61102;-30
2022/03/17 10:16:17;;;;;;;7.00;3.90;;;;;;;1.20;40.84;100940.41;105151;1271;61197;-30
2022/03/17 10:18:57;;;;;;;18.60;8.30;;;;;;;1.24;40.71;100933.34;105151;1272;73173;-30
2022/03/17 10:21:28;;;;;;;22.80;8.90;;;;;;;1.15;41.01;100933.96;105152;1271;76072;-30
2022/03/17 10:24:03;;;;;;;14.20;6.90;;;;;;;1.19;41.02;100933.05;105210;1271;74383;-30
2022/03/17 10:26:50;;;;;;;6.70;4.20;;;;;;;0.99;41.09;100929.69;104723;1272;61325;-29
2022/03/17 10:29:21;;;;;;;9.00;4.30;;;;;;;0.95;40.30;100926.13;105125;1271;61794;-30
2022/03/17 10:32:05;;;;;;;10.30;5.90;;;;;;;1.02;40.59;100925.56;104992;1271;75541;-30
2022/03/17 10:34:47;;;;;;;;;;;;;;;0.86;39.39;100919.59;105085;1271;75783;-30
2022/03/17 10:37:18;;;;;;;14.80;8.20;;;;;;;0.93;40.55;100918.82;105064;1271;73916;-29
2022/03/17 10:39:58;;;;;;;10.00;5.60;;;;;;;0.70;41.15;100921.80;105167;1271;61310;-29
2022/03/17 10:42:28;;;;;;;62.00;53.30;;;;;;;0.36;42.02;100918.21;105267;1271;62353;-29
2022/03/17 10:45:00;;;;;;;25.00;13.90;;;;;;;0.55;42.51;100920.77;105032;1271;75303;-30
2022/03/17 10:47:38;;;;;;;87.60;63.00;;;;;;;0.56;42.20;100925.20;105053;1274;76039;-29
2022/03/17 10:50:10;;;;;;;76.70;52.30;;;;;;;0.63;41.83;100915.91;104912;1274;73133;-29
2022/03/17 10:52:48;;;;;;;14.50;7.00;;;;;;;0.49;40.90;100918.77;105110;1271;61224;-29
2022/03/17 10:55:36;;;;;;;13.30;5.50;;;;;;;0.57;40.64;100919.89;104942;1271;62093;-29
2022/03/17 10:58:19;;;;;;;12.60;5.20;;;;;;;0.64;40.44;100917.77;105024;1271;74596;-29
2022/03/17 11:00:53;;;;;;;33.20;12.20;;;;;;;0.86;39.95;100909.85;105154;1271;73849;-29
2022/03/17 11:03:23;;;;;;;20.60;8.90;;;;;;;0.92;39.18;100904.80;105093;1271;73412;-29
2022/03/17 11:05:54;;;;;;;15.30;7.70;;;;;;;0.85;39.58;100898.90;105158;1272;61206;-29
2022/03/17 11:08:23;;;;;;;23.00;9.60;;;;;;;1.06;40.87;100906.85;105330;1271;61048;-29
2022/03/17 11:10:54;;;;;;;31.00;14.80;;;;;;;1.29;38.83;100908.46;105130;1274;74944;-29
2022/03/17 11:13:40;;;;;;;7.10;4.10;;;;;;;1.66;39.05;100909.33;105276;1271;75996;-29
2022/03/17 11:16:10;;;;;;;31.90;20.90;;;;;;;1.71;38.89;100914.37;105045;1274;74446;-31
2022/03/17 11:18:53;;;;;;;7.40;3.50;;;;;;;1.91;38.36;100913.38;104908;1271;61180;-29
2022/03/17 11:21:29;;;;;;;4.20;2.80;;;;;;;2.29;36.68;100911.58;105021;1271;61186;-29
2022/03/17 11:24:05;;;;;;;5.20;2.70;;;;;;;2.80;36.18;100909.98;104972;1271;75632;-29
2022/03/17 11:26:40;;;;;;;10.60;5.10;;;;;;;2.62;36.70;100911.14;104873;1271;76777;-29
2022/03/17 11:29:17;;;;;;;19.00;7.50;;;;;;;2.03;37.68;100904.30;104962;1272;71843;-31
2022/03/17 11:32:05;;;;;;;28.50;19.70;;;;;;;1.49;38.77;100906.13;105103;1272;61788;-29
2022/03/17 11:34:38;;;;;;;23.50;9.00;;;;;;;1.69;38.98;100908.58;105180;1271;61063;-29
2022/03/17 11:37:20;;;;;;;7.90;4.30;;;;;;;2.65;36.08;100909.73;105157;1272;74496;-29
2022/03/17 11:39:55;;;;;;;6.90;4.80;;;;;;;2.44;35.93;100906.48;105031;1271;74961;-30
2022/03/17 11:42:52;;;;;;;8.80;4.00;;;;;;;3.10;34.68;100905.61;105096;1271;73381;-29
2022/03/17 11:45:21;;;;;;;5.40;2.60;;;;;;;3.43;34.50;100897.15;105088;1274;61083;-31
2022/03/17 11:47:54;;;;;;;2.30;1.60;;;;;;;3.95;33.44;100903.86;105157;1272;61137;-29
2022/03/17 11:50:38;;;;;;;3.90;2.40;;;;;;;4.36;33.37;100900.30;104884;1271;74524;-29